Forest River, ND

8:07 PM CDT on March 28, 2015 (GMT -0500)
Cavalier | | Change Station
CLOSE
Current Station
Airport
Location: Cavalier,
Elevation: 892 ft
Nearby Weather Stations
Active Advisory: Wind Advisory

Elev 892 ft 48.78 °N, 97.63 °W | Updated 12 minutes ago

Partly Cloudy
Partly Cloudy
45 °F
Feels Like 37 °F
N
20
Wind Variable Wind from South
Gusts 26 mph

Today
High -- | Low -- °F
--% Chance of Precip.
Yesterday
High -- | Low -- °F
Precip. -- in
7:16 AM 7:54 PM
Waxing Gibbous, 67% visible
Pressure 29.56 in
Visibility -9999.0 miles
Clouds Clear
Windchill 37 °F
Dew Point 34 °F
Humidity 66%
Rainfall 0.00 in
Snow Depth Not available.
UV 0 out of 12
Pollen 2.10 out of 12
Air Quality Not available.
Flu Activity Not available.
METAR K2C8 290055Z AUTO 17017G23KT CLR 07/01 A2956 RMK AO2

More Conditions Fewer Conditions

Pressure 29.56 in
Visibility -9999.0 miles
Clouds Clear
Windchill 37 °F
Dew Point 34 °F
Humidity 66%
Rainfall 0.00 in
Snow Depth Not available.
UV 0 out of 12
Pollen 2.10 out of 12
Air Quality Not available.
Flu Activity Not available.
METAR K2C8 290055Z AUTO 17017G23KT CLR 07/01 A2956 RMK AO2

More Conditions Fewer Conditions

10-Day Weather Forecast

Almanac

Astronomy

Mar. 28, 2015 Rise Set
Actual Time
Civil Twilight
Nautical Twilight
Astronomical Twilight
Moon
Length of Visible Light
Length of Day
Tomorrow will be .
, % of the Moon is Illuminated

Today's Extremes

State Highs State Lows

Community

WunderPhotos

Upload Photos

1,809,140 photos uploaded!

WunderBlogs® & News

Nearby

Air Quality

  Air Quality AQ Index Pollutant
Not available.

Snow Depth

Station Depth Elevation

Earthquake Activity

City Distance Mag. Time & Date
Minimum magnitude displayed is 2.5.

Coastal Water Temperatures

Place Temperature

Stations

Nearby Weather Stations

Station Location Temp. Windchill Dew Point Humidity Wind Precip. Elev Updated Type
                   
Wind Advisory
Statement as of 3:33 PM CDT on March 28, 2015

... Wind Advisory in effect from 7 am to 7 PM CDT Sunday...

The National Weather Service in Grand Forks has issued a Wind
Advisory... which is in effect from 7 am to 7 PM CDT Sunday.

* Timing... towards sunrise in the Devils Lake region spreading east
during the morning.

* Winds... northwest 25 to 35 mph with higher gusts.

* Impacts... waves of 4 to 6 feet may be generated in the Devils
Lake basin and result in roadbed erosion in susceptible areas.

Precautionary/preparedness actions...

A Wind Advisory means that sustained winds of 30 mph or frequent
gusts to 45 mph are expected. Winds this strong can make driving
difficult... especially for high profile vehicles. Use extra
caution.